TimeEDT,TemperatureF,Dew PointF,Humidity,Sea Level PressureIn,VisibilityMPH,Wind Direction,Wind SpeedMPH,Gust SpeedMPH,PrecipitationIn,Events,Conditions,WindDirDegrees,DateUTC
12:15 AM,66.2,66.2,100,-9999,5.0,West,4.6,-,N/A,,Mist,270,2013-08-18 04:15:00
12:35 AM,66.2,66.2,100,-9999,3.0,WSW,6.9,-,N/A,,Mist,250,2013-08-18 04:35:00
12:55 AM,66.2,66.2,100,-9999,3.0,West,8.1,-,N/A,,Mostly Cloudy,260,2013-08-18 04:55:00
1:15 AM,66.2,66.2,100,-9999,6.0,WSW,6.9,-,N/A,,Scattered Clouds,240,2013-08-18 05:15:00
1:35 AM,66.2,66.2,100,-9999,0.8,WSW,9.2,-,N/A,,Mostly Cloudy,240,2013-08-18 05:35:00
1:55 AM,66.2,66.2,100,-9999,0.2,WSW,3.5,-,N/A,Fog,Fog,240,2013-08-18 05:55:00
2:15 AM,66.2,66.2,100,-9999,0.5,West,6.9,-,N/A,Fog,Fog,280,2013-08-18 06:15:00
2:35 AM,66.2,66.2,100,-9999,0.5,West,6.9,-,N/A,Fog,Fog,270,2013-08-18 06:35:00
2:55 AM,66.2,66.2,100,-9999,-9999.0,West,6.9,-,N/A,,Unknown,260,2013-08-18 06:55:00
3:15 AM,66.2,66.2,100,-9999,-9999.0,West,3.5,-,N/A,,Unknown,270,2013-08-18 07:15:00
3:35 AM,66.2,66.2,100,-9999,1.0,SW,4.6,-,N/A,,Mist,220,2013-08-18 07:35:00
3:55 AM,66.2,66.2,100,-9999,1.2,West,5.8,-,N/A,,Mist,280,2013-08-18 07:55:00
4:15 AM,66.2,66.2,100,-9999,3.0,West,3.5,-,N/A,,Mostly Cloudy,280,2013-08-18 08:15:00
4:35 AM,66.2,66.2,100,-9999,7.0,West,5.8,-,N/A,,Mostly Cloudy,260,2013-08-18 08:35:00
4:55 AM,66.2,66.2,100,-9999,2.5,WSW,5.8,-,N/A,,Mostly Cloudy,250,2013-08-18 08:55:00
5:15 AM,66.2,66.2,100,-9999,1.5,West,9.2,-,N/A,,Mostly Cloudy,280,2013-08-18 09:15:00
5:35 AM,66.2,66.2,100,-9999,2.0,Calm,Calm,-,N/A,,Mostly Cloudy,0,2013-08-18 09:35:00
5:55 AM,66.2,66.2,100,-9999,2.5,WSW,4.6,-,N/A,,Mostly Cloudy,250,2013-08-18 09:55:00
6:15 AM,66.2,66.2,100,-9999,2.0,Calm,Calm,-,N/A,,Mist,0,2013-08-18 10:15:00
6:35 AM,66.2,66.2,100,-9999,1.5,Calm,Calm,-,N/A,,Mist,0,2013-08-18 10:35:00
6:55 AM,66.2,66.2,100,-9999,1.2,NW,3.5,-,N/A,,Mist,310,2013-08-18 10:55:00
7:15 AM,66.2,66.2,100,-9999,0.2,NNE,4.6,-,N/A,Fog,Fog,20,2013-08-18 11:15:00
7:35 AM,66.2,66.2,100,-9999,1.2,NNW,5.8,-,N/A,,Mostly Cloudy,340,2013-08-18 11:35:00
7:55 AM,66.2,66.2,100,-9999,2.0,North,4.6,-,N/A,,Overcast,360,2013-08-18 11:55:00
8:15 AM,66.2,66.2,100,-9999,1.8,NW,4.6,-,N/A,,Overcast,320,2013-08-18 12:15:00
8:35 AM,66.2,66.2,100,-9999,1.2,Calm,Calm,-,N/A,,Overcast,0,2013-08-18 12:35:00
8:55 AM,66.2,66.2,100,-9999,8.0,Calm,Calm,-,N/A,,Mostly Cloudy,0,2013-08-18 12:55:00
9:15 AM,66.2,66.2,100,-9999,9.0,East,4.6,-,N/A,,Mostly Cloudy,100,2013-08-18 13:15:00
9:35 AM,68.0,68.0,100,-9999,-9999.0,Calm,Calm,-,N/A,,Unknown,0,2013-08-18 13:35:00
9:55 AM,68.0,68.0,100,-9999,10.0,NW,5.8,-,N/A,,Unknown,310,2013-08-18 13:55:00
10:15 AM,68.0,68.0,100,-9999,10.0,Calm,Calm,-,N/A,,Unknown,0,2013-08-18 14:15:00
10:35 AM,69.8,69.8,100,-9999,10.0,West,5.8,-,N/A,,Unknown,280,2013-08-18 14:35:00
10:55 AM,71.6,69.8,94,-9999,10.0,SSW,5.8,-,N/A,,Mostly Cloudy,210,2013-08-18 14:55:00
11:15 AM,73.4,71.6,94,-9999,10.0,SW,3.5,-,N/A,,Mostly Cloudy,220,2013-08-18 15:15:00
11:35 AM,73.4,71.6,94,-9999,10.0,SSE,5.8,-,N/A,,Scattered Clouds,150,2013-08-18 15:35:00
11:55 AM,75.2,71.6,89,-9999,10.0,South,8.1,-,N/A,,Scattered Clouds,190,2013-08-18 15:55:00
12:15 PM,77.0,71.6,83,-9999,10.0,NE,6.9,-,N/A,,Partly Cloudy,40,2013-08-18 16:15:00
12:35 PM,77.0,71.6,83,-9999,10.0,West,5.8,-,N/A,,Unknown,260,2013-08-18 16:35:00
12:55 PM,78.8,71.6,78,-9999,-9999.0,West,12.7,16.1,N/A,,Unknown,280,2013-08-18 16:55:00
1:15 PM,80.6,71.6,74,-9999,10.0,NNE,9.2,-,N/A,,Unknown,20,2013-08-18 17:15:00
1:35 PM,80.6,71.6,74,-9999,10.0,NW,9.2,-,N/A,,Unknown,310,2013-08-18 17:35:00
1:55 PM,80.6,71.6,74,-9999,10.0,South,3.5,17.3,N/A,,Scattered Clouds,190,2013-08-18 17:55:00
2:15 PM,80.6,71.6,74,-9999,10.0,North,6.9,-,N/A,,Mostly Cloudy,360,2013-08-18 18:15:00
2:35 PM,82.4,71.6,70,-9999,10.0,West,6.9,-,N/A,,Mostly Cloudy,260,2013-08-18 18:35:00
2:55 PM,84.2,71.6,66,-9999,10.0,ENE,5.8,-,N/A,,Partly Cloudy,70,2013-08-18 18:55:00
3:15 PM,84.2,71.6,66,-9999,10.0,West,3.5,-,N/A,,Clear,260,2013-08-18 19:15:00
3:35 PM,84.2,71.6,66,-9999,10.0,NNE,4.6,-,N/A,,Partly Cloudy,30,2013-08-18 19:35:00
3:55 PM,84.2,71.6,66,-9999,10.0,Calm,Calm,-,N/A,,Unknown,0,2013-08-18 19:55:00
4:15 PM,82.4,71.6,70,-9999,10.0,ESE,3.5,-,N/A,,Unknown,120,2013-08-18 20:15:00
4:35 PM,82.4,71.6,70,-9999,10.0,SE,10.4,16.1,N/A,,Unknown,130,2013-08-18 20:35:00
4:55 PM,84.2,71.6,66,-9999,10.0,ENE,9.2,-,N/A,,Mostly Cloudy,60,2013-08-18 20:55:00
5:15 PM,82.4,71.6,70,-9999,10.0,East,8.1,-,N/A,,Mostly Cloudy,90,2013-08-18 21:15:00
5:35 PM,84.2,71.6,66,-9999,10.0,East,10.4,-,N/A,,Partly Cloudy,100,2013-08-18 21:35:00
5:55 PM,84.2,71.6,66,-9999,10.0,ESE,9.2,-,N/A,,Scattered Clouds,120,2013-08-18 21:55:00
6:15 PM,84.2,69.8,62,-9999,10.0,East,4.6,-,N/A,,Scattered Clouds,80,2013-08-18 22:15:00
6:35 PM,84.2,71.6,66,-9999,10.0,ESE,8.1,-,N/A,,Scattered Clouds,110,2013-08-18 22:35:00
6:55 PM,82.4,71.6,70,-9999,10.0,ESE,3.5,-,N/A,,Scattered Clouds,110,2013-08-18 22:55:00
7:15 PM,80.6,73.4,79,-9999,10.0,Calm,Calm,-,N/A,,Partly Cloudy,0,2013-08-18 23:15:00
7:35 PM,78.8,75.2,89,-9999,10.0,Calm,Calm,-,N/A,,Clear,0,2013-08-18 23:35:00
7:55 PM,77.0,75.2,94,-9999,10.0,Calm,Calm,-,N/A,,Unknown,0,2013-08-18 23:55:00
8:15 PM,75.2,75.2,100,-9999,10.0,North,-9999.0,-,N/A,,Unknown,0,2013-08-19 00:15:00
8:35 PM,75.2,75.2,100,-9999,10.0,Calm,Calm,-,N/A,,Clear,0,2013-08-19 00:35:00
8:55 PM,75.2,75.2,100,-9999,10.0,Calm,Calm,-,N/A,,Clear,0,2013-08-19 00:55:00
9:15 PM,75.2,75.2,100,-9999,10.0,ENE,3.5,-,N/A,,Clear,60,2013-08-19 01:15:00
9:35 PM,75.2,75.2,100,-9999,10.0,Calm,Calm,-,N/A,,Clear,0,2013-08-19 01:35:00
9:55 PM,73.4,73.4,100,-9999,10.0,Calm,Calm,-,N/A,,Clear,0,2013-08-19 01:55:00
10:15 PM,73.4,73.4,100,-9999,10.0,Calm,Calm,-,N/A,,Clear,0,2013-08-19 02:15:00
10:35 PM,73.4,73.4,100,-9999,10.0,North,-9999.0,-,N/A,,Clear,0,2013-08-19 02:35:00
10:55 PM,73.4,73.4,100,-9999,10.0,Calm,Calm,-,N/A,,Partly Cloudy,0,2013-08-19 02:55:00
11:15 PM,73.4,73.4,100,-9999,10.0,SW,5.8,-,N/A,,Unknown,230,2013-08-19 03:15:00
11:35 PM,73.4,73.4,100,-9999,10.0,West,3.5,-,N/A,,Unknown,260,2013-08-19 03:35:00
11:55 PM,73.4,73.4,100,-9999,10.0,NE,8.1,-,N/A,,Partly Cloudy,40,2013-08-19 03:55:00